createdAt,value
2022-12-09T00:56:08.169Z,1.83
2022-12-09T00:58:39.866Z,5.83
2022-12-09T01:01:14.696Z,1.60
2022-12-09T01:03:47.658Z,2.23
2022-12-09T01:06:24.546Z,2.97
2022-12-09T01:08:58.190Z,3.90
2022-12-09T01:11:33.306Z,3.80
2022-12-09T01:14:06.954Z,2.10
2022-12-09T01:16:41.128Z,2.60
2022-12-09T01:19:16.807Z,3.07
2022-12-09T01:21:51.475Z,3.80
2022-12-09T01:24:26.485Z,4.03
2022-12-09T01:27:02.019Z,7.37
2022-12-09T01:29:35.032Z,4.10
2022-12-09T01:32:06.446Z,2.30
2022-12-09T01:37:27.809Z,4.23
2022-12-09T01:39:59.892Z,3.63
2022-12-09T01:42:33.113Z,4.07
2022-12-09T01:45:51.837Z,3.50
2022-12-09T01:48:27.460Z,3.63
2022-12-09T01:51:02.294Z,3.43
2022-12-09T01:53:36.861Z,3.00
2022-12-09T01:56:13.872Z,2.20
2022-12-09T01:58:47.459Z,3.87
2022-12-09T02:01:19.104Z,2.70
2022-12-09T02:03:50.410Z,1.90
2022-12-09T02:06:22.199Z,3.33
2022-12-09T02:08:54.997Z,4.53
2022-12-09T02:11:35.150Z,3.33
2022-12-09T02:14:17.895Z,4.77
2022-12-09T02:17:00.019Z,2.20
2022-12-09T02:19:48.699Z,4.93
2022-12-09T02:22:25.665Z,2.73
2022-12-09T02:25:03.940Z,6.40
2022-12-09T02:27:40.841Z,4.50
2022-12-09T02:30:21.191Z,6.37
2022-12-09T02:33:24.570Z,5.23
2022-12-09T02:36:02.630Z,6.27
2022-12-09T02:38:36.965Z,7.03
2022-12-09T02:41:12.361Z,4.27
2022-12-09T02:43:50.135Z,4.23
2022-12-09T02:49:03.771Z,3.43
2022-12-09T02:51:43.253Z,3.23
2022-12-09T02:54:17.955Z,2.87
2022-12-09T02:56:55.781Z,5.27
2022-12-09T02:59:26.861Z,3.53
2022-12-09T03:02:10.197Z,6.03
2022-12-09T03:04:43.614Z,4.07
2022-12-09T03:07:24.670Z,6.60
2022-12-09T03:10:02.383Z,7.30
2022-12-09T03:12:36.855Z,4.17
2022-12-09T03:15:11.346Z,4.67
2022-12-09T03:17:45.367Z,3.50
2022-12-09T03:20:20.732Z,5.30
2022-12-09T03:22:57.153Z,4.17
2022-12-09T03:25:30.786Z,4.83
2022-12-09T03:28:06.807Z,7.07
2022-12-09T03:30:40.920Z,6.43
2022-12-09T03:33:14.420Z,6.93
2022-12-09T03:35:49.596Z,18.43
2022-12-09T03:38:25.456Z,7.67
2022-12-09T03:41:04.116Z,6.83
2022-12-09T03:43:39.422Z,4.40
2022-12-09T03:46:10.878Z,5.77
2022-12-09T03:48:41.637Z,6.00
2022-12-09T03:51:19.043Z,5.87
2022-12-09T03:53:58.252Z,4.30
2022-12-09T03:56:31.617Z,7.67
2022-12-09T03:59:05.479Z,6.37
2022-12-09T04:01:37.089Z,6.07
2022-12-09T04:04:10.197Z,5.60
2022-12-09T04:06:43.176Z,8.13
2022-12-09T04:09:18.305Z,6.23
2022-12-09T04:11:50.907Z,6.57
2022-12-09T04:14:23.055Z,6.77
2022-12-09T04:16:55.616Z,10.10
2022-12-09T04:19:27.953Z,8.87
2022-12-09T04:21:59.583Z,7.93
2022-12-09T04:24:33.193Z,13.03
2022-12-09T04:27:05.861Z,9.83
2022-12-09T04:29:37.078Z,6.40
2022-12-09T04:32:09.383Z,9.17
2022-12-09T04:34:42.535Z,9.50
2022-12-09T04:37:14.623Z,10.40
2022-12-09T04:39:47.941Z,12.50
2022-12-09T04:42:32.011Z,8.40
2022-12-09T04:45:06.240Z,11.23
2022-12-09T04:47:42.110Z,10.43
2022-12-09T04:50:15.034Z,13.10
2022-12-09T04:52:46.843Z,10.23
2022-12-09T04:55:23.630Z,9.17
2022-12-09T04:57:57.137Z,11.07
2022-12-09T05:00:29.073Z,8.83
2022-12-09T05:03:01.003Z,9.27
2022-12-09T05:05:32.078Z,8.40
2022-12-09T05:08:03.302Z,10.27
2022-12-09T05:10:36.221Z,9.93
2022-12-09T05:13:07.831Z,10.37
2022-12-09T05:15:45.707Z,7.63
2022-12-09T05:18:18.263Z,13.53
2022-12-09T05:20:50.308Z,8.00
2022-12-09T05:23:22.013Z,13.90
2022-12-09T05:25:57.856Z,7.27
2022-12-09T05:28:30.252Z,8.33
2022-12-09T05:31:05.579Z,7.33
2022-12-09T05:33:38.622Z,8.70
2022-12-09T05:36:14.473Z,9.03
2022-12-09T05:38:48.293Z,10.70
2022-12-09T05:41:36.708Z,10.90
2022-12-09T05:44:11.181Z,12.43
2022-12-09T05:46:44.098Z,11.27
2022-12-09T05:49:16.893Z,6.40
2022-12-09T05:51:50.334Z,9.27
2022-12-09T05:54:23.159Z,8.60
2022-12-09T05:57:05.286Z,7.53
2022-12-09T05:59:52.621Z,9.00
2022-12-09T06:02:37.739Z,8.70
2022-12-09T06:05:21.880Z,7.83
2022-12-09T06:07:53.232Z,5.83
2022-12-09T06:10:25.150Z,7.87
2022-12-09T06:13:00.717Z,7.53
2022-12-09T06:15:33.707Z,6.13
2022-12-09T06:18:05.662Z,7.13
2022-12-09T06:20:37.533Z,6.40
2022-12-09T06:23:09.670Z,7.33
2022-12-09T06:25:41.690Z,5.47
2022-12-09T06:28:15.679Z,6.87
2022-12-09T06:30:48.264Z,8.43
2022-12-09T06:33:52.402Z,10.17
2022-12-09T06:36:15.657Z,8.93
2022-12-09T06:38:47.282Z,4.53
2022-12-09T06:41:27.627Z,8.03
2022-12-09T06:44:09.173Z,6.60
2022-12-09T06:47:05.287Z,6.03
2022-12-09T06:49:37.699Z,7.20
2022-12-09T06:52:09.763Z,6.33
2022-12-09T06:54:41.382Z,7.03
2022-12-09T06:57:13.845Z,8.93
2022-12-09T06:59:48.190Z,9.97
2022-12-09T07:02:20.712Z,7.83
2022-12-09T07:04:58.289Z,6.00
2022-12-09T07:07:31.061Z,10.00
2022-12-09T07:10:04.809Z,8.43
2022-12-09T07:12:39.035Z,5.43
2022-12-09T07:15:14.558Z,9.03
2022-12-09T07:17:47.996Z,6.90
2022-12-09T07:20:21.604Z,5.10
2022-12-09T07:22:53.332Z,8.57
2022-12-09T07:25:29.674Z,9.33
2022-12-09T07:28:01.912Z,5.13
2022-12-09T07:30:42.756Z,7.50
2022-12-09T07:33:30.382Z,9.57
2022-12-09T07:36:03.926Z,7.07
2022-12-09T07:38:39.270Z,7.63
2022-12-09T07:41:18.799Z,6.23
2022-12-09T07:43:51.039Z,6.37
2022-12-09T07:46:25.916Z,6.50
2022-12-09T07:48:58.656Z,7.20
2022-12-09T07:51:31.449Z,5.33
2022-12-09T07:54:05.473Z,6.50
2022-12-09T07:56:39.110Z,4.83
2022-12-09T07:59:11.721Z,7.47
2022-12-09T08:01:46.673Z,4.10
2022-12-09T08:04:18.821Z,4.10
2022-12-09T08:06:51.828Z,6.53
2022-12-09T08:09:28.217Z,4.63
2022-12-09T08:12:00.176Z,5.50
2022-12-09T08:14:32.354Z,4.10
2022-12-09T08:17:05.857Z,4.60
2022-12-09T08:19:38.655Z,6.17
2022-12-09T08:22:11.185Z,3.67
2022-12-09T08:24:44.140Z,4.87
2022-12-09T08:27:17.647Z,2.67
2022-12-09T08:29:49.651Z,3.33
2022-12-09T08:32:30.618Z,4.37
2022-12-09T08:35:02.282Z,5.47
2022-12-09T08:37:36.585Z,2.83
2022-12-09T08:40:09.018Z,6.97
